sensor_id;sensor_type;location;lat;lon;timestamp;P1;durP1;ratioP1;P2;durP2;ratioP2
52450;SDS011;38366;53.176;6.540;2022-08-19T00:01:36;7.88;;;4.28;;
52450;SDS011;38366;53.176;6.540;2022-08-19T00:04:05;5.88;;;4.90;;
52450;SDS011;38366;53.176;6.540;2022-08-19T00:06:33;8.05;;;5.05;;
52450;SDS011;38366;53.176;6.540;2022-08-19T00:09:00;7.97;;;4.95;;
52450;SDS011;38366;53.176;6.540;2022-08-19T00:11:26;7.50;;;5.70;;
52450;SDS011;38366;53.176;6.540;2022-08-19T00:13:53;7.05;;;5.25;;
52450;SDS011;38366;53.176;6.540;2022-08-19T00:16:20;5.20;;;3.65;;
52450;SDS011;38366;53.176;6.540;2022-08-19T00:18:46;3.95;;;3.05;;
52450;SDS011;38366;53.176;6.540;2022-08-19T00:21:13;3.58;;;3.05;;
52450;SDS011;38366;53.176;6.540;2022-08-19T00:26:05;4.15;;;3.40;;
52450;SDS011;38366;53.176;6.540;2022-08-19T00:28:32;4.65;;;3.50;;
52450;SDS011;38366;53.176;6.540;2022-08-19T00:31:00;5.93;;;4.28;;
52450;SDS011;38366;53.176;6.540;2022-08-19T00:33:28;4.60;;;4.00;;
52450;SDS011;38366;53.176;6.540;2022-08-19T00:35:57;7.50;;;4.55;;
52450;SDS011;38366;53.176;6.540;2022-08-19T00:38:24;4.30;;;3.88;;
52450;SDS011;38366;53.176;6.540;2022-08-19T00:40:50;4.80;;;3.78;;
52450;SDS011;38366;53.176;6.540;2022-08-19T00:43:19;4.60;;;3.90;;
52450;SDS011;38366;53.176;6.540;2022-08-19T00:45:46;4.38;;;3.65;;
52450;SDS011;38366;53.176;6.540;2022-08-19T00:48:13;5.70;;;4.43;;
52450;SDS011;38366;53.176;6.540;2022-08-19T00:50:39;4.75;;;4.03;;
52450;SDS011;38366;53.176;6.540;2022-08-19T00:53:08;4.90;;;3.75;;
52450;SDS011;38366;53.176;6.540;2022-08-19T00:55:35;6.35;;;3.92;;
52450;SDS011;38366;53.176;6.540;2022-08-19T00:58:05;6.78;;;3.88;;
52450;SDS011;38366;53.176;6.540;2022-08-19T01:00:35;6.85;;;4.53;;
52450;SDS011;38366;53.176;6.540;2022-08-19T01:03:06;6.65;;;4.40;;
52450;SDS011;38366;53.176;6.540;2022-08-19T01:05:37;6.82;;;4.70;;
52450;SDS011;38366;53.176;6.540;2022-08-19T01:08:06;4.50;;;4.00;;
52450;SDS011;38366;53.176;6.540;2022-08-19T01:10:35;3.35;;;2.58;;
52450;SDS011;38366;53.176;6.540;2022-08-19T01:13:05;6.22;;;3.42;;
52450;SDS011;38366;53.176;6.540;2022-08-19T01:15:45;2.08;;;1.75;;
52450;SDS011;38366;53.176;6.540;2022-08-19T01:18:15;2.20;;;1.70;;
52450;SDS011;38366;53.176;6.540;2022-08-19T01:20:43;3.55;;;1.00;;
52450;SDS011;38366;53.176;6.540;2022-08-19T01:23:09;1.95;;;1.05;;
52450;SDS011;38366;53.176;6.540;2022-08-19T01:25:41;1.55;;;1.10;;
52450;SDS011;38366;53.176;6.540;2022-08-19T01:28:14;2.67;;;1.48;;
52450;SDS011;38366;53.176;6.540;2022-08-19T01:30:53;10.98;;;1.98;;
52450;SDS011;38366;53.176;6.540;2022-08-19T01:33:19;6.47;;;1.83;;
52450;SDS011;38366;53.176;6.540;2022-08-19T01:35:45;14.13;;;2.33;;
52450;SDS011;38366;53.176;6.540;2022-08-19T01:38:23;8.90;;;2.25;;
52450;SDS011;38366;53.176;6.540;2022-08-19T01:40:50;2.30;;;2.08;;
52450;SDS011;38366;53.176;6.540;2022-08-19T01:43:17;2.80;;;2.00;;
52450;SDS011;38366;53.176;6.540;2022-08-19T01:45:44;7.13;;;2.30;;
52450;SDS011;38366;53.176;6.540;2022-08-19T01:48:11;4.50;;;2.42;;
52450;SDS011;38366;53.176;6.540;2022-08-19T01:50:37;6.50;;;2.75;;
52450;SDS011;38366;53.176;6.540;2022-08-19T01:53:05;2.55;;;1.52;;
52450;SDS011;38366;53.176;6.540;2022-08-19T01:55:33;3.40;;;1.83;;
52450;SDS011;38366;53.176;6.540;2022-08-19T01:58:02;3.92;;;2.60;;
52450;SDS011;38366;53.176;6.540;2022-08-19T02:00:31;4.60;;;2.97;;
52450;SDS011;38366;53.176;6.540;2022-08-19T02:02:57;5.45;;;3.60;;
52450;SDS011;38366;53.176;6.540;2022-08-19T02:05:24;7.13;;;4.40;;
52450;SDS011;38366;53.176;6.540;2022-08-19T02:07:50;4.00;;;2.67;;
52450;SDS011;38366;53.176;6.540;2022-08-19T02:10:17;5.00;;;2.80;;
52450;SDS011;38366;53.176;6.540;2022-08-19T02:12:46;6.30;;;3.45;;
52450;SDS011;38366;53.176;6.540;2022-08-19T02:15:12;4.78;;;2.50;;
52450;SDS011;38366;53.176;6.540;2022-08-19T02:17:38;4.47;;;2.72;;
52450;SDS011;38366;53.176;6.540;2022-08-19T02:20:04;6.00;;;3.50;;
52450;SDS011;38366;53.176;6.540;2022-08-19T02:22:31;5.90;;;3.30;;
52450;SDS011;38366;53.176;6.540;2022-08-19T02:24:57;3.72;;;2.80;;
52450;SDS011;38366;53.176;6.540;2022-08-19T02:27:23;5.32;;;3.10;;
52450;SDS011;38366;53.176;6.540;2022-08-19T02:29:50;5.85;;;3.30;;
52450;SDS011;38366;53.176;6.540;2022-08-19T02:32:16;4.38;;;3.45;;
52450;SDS011;38366;53.176;6.540;2022-08-19T02:34:44;9.00;;;4.05;;
52450;SDS011;38366;53.176;6.540;2022-08-19T02:37:11;6.68;;;4.07;;
52450;SDS011;38366;53.176;6.540;2022-08-19T02:39:57;6.85;;;4.57;;
52450;SDS011;38366;53.176;6.540;2022-08-19T02:42:23;6.88;;;5.10;;
52450;SDS011;38366;53.176;6.540;2022-08-19T02:44:49;8.90;;;5.80;;
52450;SDS011;38366;53.176;6.540;2022-08-19T02:47:17;8.43;;;5.43;;
52450;SDS011;38366;53.176;6.540;2022-08-19T02:49:44;5.82;;;4.35;;
52450;SDS011;38366;53.176;6.540;2022-08-19T02:52:10;8.23;;;5.35;;
52450;SDS011;38366;53.176;6.540;2022-08-19T02:54:36;7.43;;;5.10;;
52450;SDS011;38366;53.176;6.540;2022-08-19T02:57:03;10.20;;;5.63;;
52450;SDS011;38366;53.176;6.540;2022-08-19T03:01:55;5.40;;;3.63;;
52450;SDS011;38366;53.176;6.540;2022-08-19T03:04:21;4.50;;;3.20;;
52450;SDS011;38366;53.176;6.540;2022-08-19T03:06:48;8.38;;;3.78;;
52450;SDS011;38366;53.176;6.540;2022-08-19T03:09:14;4.35;;;3.42;;
52450;SDS011;38366;53.176;6.540;2022-08-19T03:11:41;7.00;;;4.45;;
52450;SDS011;38366;53.176;6.540;2022-08-19T03:14:08;17.60;;;3.83;;
52450;SDS011;38366;53.176;6.540;2022-08-19T03:16:39;5.70;;;3.67;;
52450;SDS011;38366;53.176;6.540;2022-08-19T03:19:07;4.90;;;3.40;;
52450;SDS011;38366;53.176;6.540;2022-08-19T03:21:33;6.00;;;3.75;;
52450;SDS011;38366;53.176;6.540;2022-08-19T03:26:27;6.35;;;3.80;;
52450;SDS011;38366;53.176;6.540;2022-08-19T03:28:53;9.02;;;6.45;;
52450;SDS011;38366;53.176;6.540;2022-08-19T03:31:20;8.15;;;6.10;;
52450;SDS011;38366;53.176;6.540;2022-08-19T03:33:52;9.18;;;5.75;;
52450;SDS011;38366;53.176;6.540;2022-08-19T03:36:19;7.25;;;4.80;;
52450;SDS011;38366;53.176;6.540;2022-08-19T03:38:51;8.30;;;5.28;;
52450;SDS011;38366;53.176;6.540;2022-08-19T03:41:30;7.13;;;5.05;;
52450;SDS011;38366;53.176;6.540;2022-08-19T03:43:57;10.23;;;4.88;;
52450;SDS011;38366;53.176;6.540;2022-08-19T03:48:54;7.05;;;5.38;;
52450;SDS011;38366;53.176;6.540;2022-08-19T03:51:26;9.38;;;6.28;;
52450;SDS011;38366;53.176;6.540;2022-08-19T03:53:54;9.52;;;6.03;;
52450;SDS011;38366;53.176;6.540;2022-08-19T03:56:21;11.15;;;7.63;;
52450;SDS011;38366;53.176;6.540;2022-08-19T03:58:47;10.98;;;7.75;;
52450;SDS011;38366;53.176;6.540;2022-08-19T04:01:17;10.40;;;7.93;;
52450;SDS011;38366;53.176;6.540;2022-08-19T04:03:44;12.57;;;8.27;;
52450;SDS011;38366;53.176;6.540;2022-08-19T04:06:15;10.95;;;7.70;;
52450;SDS011;38366;53.176;6.540;2022-08-19T04:08:44;12.70;;;8.32;;
52450;SDS011;38366;53.176;6.540;2022-08-19T04:11:15;14.75;;;9.25;;
52450;SDS011;38366;53.176;6.540;2022-08-19T04:16:14;14.20;;;9.05;;
52450;SDS011;38366;53.176;6.540;2022-08-19T04:18:40;12.95;;;8.63;;
52450;SDS011;38366;53.176;6.540;2022-08-19T04:21:07;14.05;;;9.10;;
52450;SDS011;38366;53.176;6.540;2022-08-19T04:23:34;15.00;;;10.00;;
52450;SDS011;38366;53.176;6.540;2022-08-19T04:26:03;14.43;;;9.80;;
52450;SDS011;38366;53.176;6.540;2022-08-19T04:28:29;15.35;;;9.93;;
52450;SDS011;38366;53.176;6.540;2022-08-19T04:30:54;16.63;;;10.07;;
52450;SDS011;38366;53.176;6.540;2022-08-19T04:33:24;15.48;;;10.20;;
52450;SDS011;38366;53.176;6.540;2022-08-19T04:35:51;14.93;;;10.00;;
52450;SDS011;38366;53.176;6.540;2022-08-19T04:38:18;19.45;;;10.40;;
52450;SDS011;38366;53.176;6.540;2022-08-19T04:40:48;16.45;;;10.93;;
52450;SDS011;38366;53.176;6.540;2022-08-19T04:43:34;13.70;;;9.87;;
52450;SDS011;38366;53.176;6.540;2022-08-19T04:46:09;15.32;;;9.95;;
52450;SDS011;38366;53.176;6.540;2022-08-19T04:48:36;18.13;;;10.88;;
52450;SDS011;38366;53.176;6.540;2022-08-19T04:51:06;14.95;;;9.80;;
52450;SDS011;38366;53.176;6.540;2022-08-19T04:53:34;13.73;;;9.45;;
52450;SDS011;38366;53.176;6.540;2022-08-19T04:56:04;15.90;;;10.52;;
52450;SDS011;38366;53.176;6.540;2022-08-19T04:58:38;12.82;;;8.82;;
52450;SDS011;38366;53.176;6.540;2022-08-19T05:01:07;12.63;;;8.85;;
52450;SDS011;38366;53.176;6.540;2022-08-19T05:03:37;14.70;;;10.15;;
52450;SDS011;38366;53.176;6.540;2022-08-19T05:06:10;16.15;;;11.00;;
52450;SDS011;38366;53.176;6.540;2022-08-19T05:08:39;14.38;;;10.23;;
52450;SDS011;38366;53.176;6.540;2022-08-19T05:11:11;13.68;;;9.07;;
52450;SDS011;38366;53.176;6.540;2022-08-19T05:13:53;11.65;;;8.13;;
52450;SDS011;38366;53.176;6.540;2022-08-19T05:16:20;13.15;;;8.70;;
52450;SDS011;38366;53.176;6.540;2022-08-19T05:18:47;9.57;;;6.55;;
52450;SDS011;38366;53.176;6.540;2022-08-19T05:21:32;9.57;;;5.32;;
52450;SDS011;38366;53.176;6.540;2022-08-19T05:24:18;93.32;;;6.95;;
52450;SDS011;38366;53.176;6.540;2022-08-19T05:26:46;26.33;;;4.80;;
52450;SDS011;38366;53.176;6.540;2022-08-19T05:29:18;46.05;;;5.15;;
52450;SDS011;38366;53.176;6.540;2022-08-19T05:31:46;7.85;;;5.15;;
52450;SDS011;38366;53.176;6.540;2022-08-19T05:34:14;9.40;;;5.28;;
52450;SDS011;38366;53.176;6.540;2022-08-19T05:36:42;6.40;;;5.03;;
52450;SDS011;38366;53.176;6.540;2022-08-19T05:39:11;4.93;;;4.05;;
52450;SDS011;38366;53.176;6.540;2022-08-19T05:41:51;8.25;;;4.72;;
52450;SDS011;38366;53.176;6.540;2022-08-19T05:44:19;6.80;;;5.03;;
52450;SDS011;38366;53.176;6.540;2022-08-19T05:46:46;7.22;;;5.47;;
52450;SDS011;38366;53.176;6.540;2022-08-19T05:49:13;10.93;;;7.65;;
52450;SDS011;38366;53.176;6.540;2022-08-19T05:51:40;13.02;;;8.15;;
52450;SDS011;38366;53.176;6.540;2022-08-19T05:54:07;12.52;;;8.25;;
52450;SDS011;38366;53.176;6.540;2022-08-19T05:56:33;11.95;;;8.30;;
52450;SDS011;38366;53.176;6.540;2022-08-19T05:59:03;13.25;;;8.85;;
52450;SDS011;38366;53.176;6.540;2022-08-19T06:01:33;13.40;;;8.77;;
52450;SDS011;38366;53.176;6.540;2022-08-19T06:04:00;16.58;;;10.18;;
52450;SDS011;38366;53.176;6.540;2022-08-19T06:06:27;10.82;;;8.40;;
52450;SDS011;38366;53.176;6.540;2022-08-19T06:08:53;11.98;;;8.80;;
52450;SDS011;38366;53.176;6.540;2022-08-19T06:11:23;13.07;;;8.73;;
52450;SDS011;38366;53.176;6.540;2022-08-19T06:14:00;15.27;;;9.02;;
52450;SDS011;38366;53.176;6.540;2022-08-19T06:16:27;15.40;;;10.55;;
52450;SDS011;38366;53.176;6.540;2022-08-19T06:18:55;14.27;;;10.18;;
52450;SDS011;38366;53.176;6.540;2022-08-19T06:21:22;14.63;;;10.77;;
52450;SDS011;38366;53.176;6.540;2022-08-19T06:23:49;16.50;;;10.60;;
52450;SDS011;38366;53.176;6.540;2022-08-19T06:26:17;14.60;;;10.15;;
52450;SDS011;38366;53.176;6.540;2022-08-19T06:28:43;14.23;;;10.07;;
52450;SDS011;38366;53.176;6.540;2022-08-19T06:31:15;14.75;;;10.63;;
52450;SDS011;38366;53.176;6.540;2022-08-19T06:33:42;13.40;;;10.00;;
52450;SDS011;38366;53.176;6.540;2022-08-19T06:36:23;12.18;;;10.05;;
52450;SDS011;38366;53.176;6.540;2022-08-19T06:39:00;12.48;;;9.30;;
52450;SDS011;38366;53.176;6.540;2022-08-19T06:41:31;12.40;;;8.95;;
52450;SDS011;38366;53.176;6.540;2022-08-19T06:43:59;11.13;;;8.45;;
52450;SDS011;38366;53.176;6.540;2022-08-19T06:46:25;10.35;;;8.02;;
52450;SDS011;38366;53.176;6.540;2022-08-19T06:48:51;11.75;;;8.45;;
52450;SDS011;38366;53.176;6.540;2022-08-19T06:51:19;9.85;;;7.65;;
52450;SDS011;38366;53.176;6.540;2022-08-19T06:53:49;9.35;;;7.10;;
52450;SDS011;38366;53.176;6.540;2022-08-19T06:56:16;8.68;;;6.93;;
52450;SDS011;38366;53.176;6.540;2022-08-19T06:58:46;9.60;;;7.35;;
52450;SDS011;38366;53.176;6.540;2022-08-19T07:01:13;11.23;;;7.20;;
52450;SDS011;38366;53.176;6.540;2022-08-19T07:03:39;7.82;;;6.20;;
52450;SDS011;38366;53.176;6.540;2022-08-19T07:06:05;9.50;;;6.85;;
52450;SDS011;38366;53.176;6.540;2022-08-19T07:08:34;11.40;;;6.63;;
52450;SDS011;38366;53.176;6.540;2022-08-19T07:11:02;9.25;;;6.68;;
52450;SDS011;38366;53.176;6.540;2022-08-19T07:13:32;8.05;;;6.20;;
52450;SDS011;38366;53.176;6.540;2022-08-19T07:16:04;7.88;;;6.15;;
52450;SDS011;38366;53.176;6.540;2022-08-19T07:18:35;6.70;;;5.95;;
52450;SDS011;38366;53.176;6.540;2022-08-19T07:21:05;7.90;;;5.88;;
52450;SDS011;38366;53.176;6.540;2022-08-19T07:23:37;8.43;;;6.03;;
52450;SDS011;38366;53.176;6.540;2022-08-19T07:28:33;7.93;;;6.15;;
52450;SDS011;38366;53.176;6.540;2022-08-19T07:33:26;8.05;;;6.30;;
52450;SDS011;38366;53.176;6.540;2022-08-19T07:35:52;9.63;;;6.80;;
52450;SDS011;38366;53.176;6.540;2022-08-19T07:38:19;9.52;;;6.10;;
52450;SDS011;38366;53.176;6.540;2022-08-19T07:40:45;8.52;;;5.60;;
52450;SDS011;38366;53.176;6.540;2022-08-19T07:43:11;6.88;;;5.80;;
52450;SDS011;38366;53.176;6.540;2022-08-19T07:45:36;7.03;;;5.53;;
52450;SDS011;38366;53.176;6.540;2022-08-19T07:50:29;8.67;;;5.93;;
52450;SDS011;38366;53.176;6.540;2022-08-19T07:52:55;7.88;;;5.43;;
52450;SDS011;38366;53.176;6.540;2022-08-19T07:55:22;8.50;;;5.45;;
52450;SDS011;38366;53.176;6.540;2022-08-19T07:57:49;8.55;;;5.75;;
52450;SDS011;38366;53.176;6.540;2022-08-19T08:00:17;7.45;;;5.47;;
52450;SDS011;38366;53.176;6.540;2022-08-19T08:02:43;7.97;;;5.03;;
52450;SDS011;38366;53.176;6.540;2022-08-19T08:05:09;8.23;;;5.97;;
52450;SDS011;38366;53.176;6.540;2022-08-19T08:07:54;8.10;;;5.72;;
52450;SDS011;38366;53.176;6.540;2022-08-19T08:10:39;6.45;;;5.32;;
52450;SDS011;38366;53.176;6.540;2022-08-19T08:13:05;5.90;;;5.30;;
52450;SDS011;38366;53.176;6.540;2022-08-19T08:15:31;7.40;;;4.97;;
52450;SDS011;38366;53.176;6.540;2022-08-19T08:17:57;7.13;;;5.20;;
52450;SDS011;38366;53.176;6.540;2022-08-19T08:20:23;5.68;;;4.88;;
52450;SDS011;38366;53.176;6.540;2022-08-19T08:22:49;7.20;;;6.03;;
52450;SDS011;38366;53.176;6.540;2022-08-19T08:25:34;6.43;;;5.70;;
52450;SDS011;38366;53.176;6.540;2022-08-19T08:28:01;7.50;;;5.88;;
52450;SDS011;38366;53.176;6.540;2022-08-19T08:30:28;7.40;;;5.15;;
52450;SDS011;38366;53.176;6.540;2022-08-19T08:32:55;7.05;;;5.95;;
52450;SDS011;38366;53.176;6.540;2022-08-19T08:35:23;7.53;;;6.28;;
52450;SDS011;38366;53.176;6.540;2022-08-19T08:37:51;10.32;;;7.18;;
52450;SDS011;38366;53.176;6.540;2022-08-19T08:40:20;6.60;;;5.57;;
52450;SDS011;38366;53.176;6.540;2022-08-19T08:43:28;6.15;;;5.10;;
52450;SDS011;38366;53.176;6.540;2022-08-19T08:45:51;8.32;;;5.75;;
52450;SDS011;38366;53.176;6.540;2022-08-19T08:51:20;8.68;;;6.43;;
52450;SDS011;38366;53.176;6.540;2022-08-19T08:53:51;7.10;;;6.40;;
52450;SDS011;38366;53.176;6.540;2022-08-19T08:56:18;7.53;;;6.40;;
52450;SDS011;38366;53.176;6.540;2022-08-19T08:58:46;8.38;;;7.50;;
52450;SDS011;38366;53.176;6.540;2022-08-19T09:01:21;9.65;;;6.88;;
52450;SDS011;38366;53.176;6.540;2022-08-19T09:03:47;8.60;;;7.13;;
52450;SDS011;38366;53.176;6.540;2022-08-19T09:09:00;8.40;;;6.88;;
52450;SDS011;38366;53.176;6.540;2022-08-19T09:14:32;8.27;;;7.30;;
52450;SDS011;38366;53.176;6.540;2022-08-19T09:17:21;8.98;;;7.70;;
52450;SDS011;38366;53.176;6.540;2022-08-19T09:20:03;7.95;;;7.25;;
52450;SDS011;38366;53.176;6.540;2022-08-19T09:22:40;8.98;;;7.90;;
52450;SDS011;38366;53.176;6.540;2022-08-19T09:25:09;8.32;;;6.90;;
52450;SDS011;38366;53.176;6.540;2022-08-19T09:27:37;8.52;;;7.03;;
52450;SDS011;38366;53.176;6.540;2022-08-19T09:30:05;8.68;;;7.72;;
52450;SDS011;38366;53.176;6.540;2022-08-19T09:32:32;8.63;;;7.72;;
52450;SDS011;38366;53.176;6.540;2022-08-19T09:34:58;8.35;;;7.18;;
52450;SDS011;38366;53.176;6.540;2022-08-19T09:37:25;7.50;;;6.30;;
52450;SDS011;38366;53.176;6.540;2022-08-19T09:39:51;7.70;;;6.90;;
52450;SDS011;38366;53.176;6.540;2022-08-19T09:42:17;8.65;;;7.07;;
52450;SDS011;38366;53.176;6.540;2022-08-19T09:44:43;6.60;;;5.95;;
52450;SDS011;38366;53.176;6.540;2022-08-19T09:47:11;8.13;;;6.80;;
52450;SDS011;38366;53.176;6.540;2022-08-19T09:49:38;7.57;;;6.57;;
52450;SDS011;38366;53.176;6.540;2022-08-19T09:52:05;8.50;;;7.32;;
52450;SDS011;38366;53.176;6.540;2022-08-19T09:54:33;7.15;;;6.32;;
52450;SDS011;38366;53.176;6.540;2022-08-19T09:56:59;8.70;;;7.05;;
52450;SDS011;38366;53.176;6.540;2022-08-19T09:59:27;8.40;;;7.60;;
52450;SDS011;38366;53.176;6.540;2022-08-19T10:01:54;8.38;;;7.55;;
52450;SDS011;38366;53.176;6.540;2022-08-19T10:04:20;8.98;;;6.95;;
52450;SDS011;38366;53.176;6.540;2022-08-19T10:06:46;9.02;;;8.13;;
52450;SDS011;38366;53.176;6.540;2022-08-19T10:09:14;9.05;;;7.82;;
52450;SDS011;38366;53.176;6.540;2022-08-19T10:11:44;9.07;;;7.43;;
52450;SDS011;38366;53.176;6.540;2022-08-19T10:14:15;8.52;;;7.50;;
52450;SDS011;38366;53.176;6.540;2022-08-19T10:16:41;8.60;;;7.55;;
52450;SDS011;38366;53.176;6.540;2022-08-19T10:19:07;8.02;;;7.22;;
52450;SDS011;38366;53.176;6.540;2022-08-19T10:21:34;8.38;;;7.57;;
52450;SDS011;38366;53.176;6.540;2022-08-19T10:24:02;10.43;;;8.80;;
52450;SDS011;38366;53.176;6.540;2022-08-19T10:26:31;8.07;;;7.28;;
52450;SDS011;38366;53.176;6.540;2022-08-19T10:28:59;8.50;;;7.47;;
52450;SDS011;38366;53.176;6.540;2022-08-19T10:31:29;9.05;;;7.22;;
52450;SDS011;38366;53.176;6.540;2022-08-19T10:33:56;7.57;;;6.80;;
52450;SDS011;38366;53.176;6.540;2022-08-19T10:36:31;7.75;;;6.95;;
52450;SDS011;38366;53.176;6.540;2022-08-19T10:39:00;7.68;;;6.93;;
52450;SDS011;38366;53.176;6.540;2022-08-19T10:41:29;6.80;;;6.15;;
52450;SDS011;38366;53.176;6.540;2022-08-19T10:43:58;6.40;;;5.75;;
52450;SDS011;38366;53.176;6.540;2022-08-19T10:46:26;7.25;;;6.57;;
52450;SDS011;38366;53.176;6.540;2022-08-19T10:48:53;7.30;;;6.60;;
52450;SDS011;38366;53.176;6.540;2022-08-19T10:51:20;8.43;;;6.60;;
52450;SDS011;38366;53.176;6.540;2022-08-19T10:54:05;7.95;;;7.10;;
52450;SDS011;38366;53.176;6.540;2022-08-19T10:56:31;8.05;;;7.07;;
52450;SDS011;38366;53.176;6.540;2022-08-19T10:59:16;8.18;;;7.38;;
52450;SDS011;38366;53.176;6.540;2022-08-19T11:01:52;8.65;;;7.85;;
52450;SDS011;38366;53.176;6.540;2022-08-19T11:04:19;11.30;;;9.57;;
52450;SDS011;38366;53.176;6.540;2022-08-19T11:06:47;8.90;;;8.00;;
52450;SDS011;38366;53.176;6.540;2022-08-19T11:09:14;9.00;;;8.10;;
52450;SDS011;38366;53.176;6.540;2022-08-19T11:11:42;11.15;;;7.95;;
52450;SDS011;38366;53.176;6.540;2022-08-19T11:14:09;9.32;;;8.43;;
52450;SDS011;38366;53.176;6.540;2022-08-19T11:16:36;7.68;;;6.97;;
52450;SDS011;38366;53.176;6.540;2022-08-19T11:19:06;6.78;;;6.18;;
52450;SDS011;38366;53.176;6.540;2022-08-19T11:21:34;8.20;;;7.30;;
52450;SDS011;38366;53.176;6.540;2022-08-19T11:24:03;9.05;;;8.15;;
52450;SDS011;38366;53.176;6.540;2022-08-19T11:26:40;8.85;;;7.78;;
52450;SDS011;38366;53.176;6.540;2022-08-19T11:29:07;8.88;;;7.88;;
52450;SDS011;38366;53.176;6.540;2022-08-19T11:31:38;9.23;;;8.07;;
52450;SDS011;38366;53.176;6.540;2022-08-19T11:34:08;10.40;;;9.30;;
52450;SDS011;38366;53.176;6.540;2022-08-19T11:36:37;11.43;;;8.60;;
52450;SDS011;38366;53.176;6.540;2022-08-19T11:39:05;10.02;;;8.55;;
52450;SDS011;38366;53.176;6.540;2022-08-19T11:41:33;9.02;;;8.23;;
52450;SDS011;38366;53.176;6.540;2022-08-19T11:43:59;9.45;;;8.55;;
52450;SDS011;38366;53.176;6.540;2022-08-19T11:46:25;8.75;;;7.85;;
52450;SDS011;38366;53.176;6.540;2022-08-19T11:48:58;10.75;;;8.23;;
52450;SDS011;38366;53.176;6.540;2022-08-19T11:51:26;9.43;;;7.95;;
52450;SDS011;38366;53.176;6.540;2022-08-19T11:53:52;10.93;;;8.88;;
52450;SDS011;38366;53.176;6.540;2022-08-19T11:56:20;10.10;;;8.75;;
52450;SDS011;38366;53.176;6.540;2022-08-19T11:58:47;10.13;;;8.50;;
52450;SDS011;38366;53.176;6.540;2022-08-19T12:01:14;8.80;;;7.85;;
52450;SDS011;38366;53.176;6.540;2022-08-19T12:03:43;8.95;;;8.05;;
52450;SDS011;38366;53.176;6.540;2022-08-19T12:06:12;8.27;;;7.43;;
52450;SDS011;38366;53.176;6.540;2022-08-19T12:08:41;8.07;;;7.28;;
52450;SDS011;38366;53.176;6.540;2022-08-19T12:11:08;9.32;;;8.30;;
52450;SDS011;38366;53.176;6.540;2022-08-19T12:13:35;9.90;;;8.77;;
52450;SDS011;38366;53.176;6.540;2022-08-19T12:16:09;10.65;;;9.30;;
52450;SDS011;38366;53.176;6.540;2022-08-19T12:18:38;9.30;;;7.90;;
52450;SDS011;38366;53.176;6.540;2022-08-19T12:21:06;9.82;;;7.88;;
52450;SDS011;38366;53.176;6.540;2022-08-19T12:23:35;7.45;;;6.40;;
52450;SDS011;38366;53.176;6.540;2022-08-19T12:26:02;8.07;;;6.05;;
52450;SDS011;38366;53.176;6.540;2022-08-19T12:28:27;9.40;;;6.65;;
52450;SDS011;38366;53.176;6.540;2022-08-19T12:30:53;7.45;;;6.22;;
52450;SDS011;38366;53.176;6.540;2022-08-19T12:33:21;6.97;;;6.28;;
52450;SDS011;38366;53.176;6.540;2022-08-19T12:35:49;7.47;;;6.07;;
52450;SDS011;38366;53.176;6.540;2022-08-19T12:38:15;7.30;;;5.80;;
52450;SDS011;38366;53.176;6.540;2022-08-19T12:40:45;9.30;;;6.68;;
52450;SDS011;38366;53.176;6.540;2022-08-19T12:43:12;7.50;;;5.80;;
52450;SDS011;38366;53.176;6.540;2022-08-19T12:45:40;9.18;;;6.68;;
52450;SDS011;38366;53.176;6.540;2022-08-19T12:48:07;6.57;;;5.95;;
52450;SDS011;38366;53.176;6.540;2022-08-19T12:50:34;7.05;;;5.82;;
52450;SDS011;38366;53.176;6.540;2022-08-19T12:53:00;8.70;;;6.35;;
52450;SDS011;38366;53.176;6.540;2022-08-19T12:55:25;6.82;;;6.20;;
52450;SDS011;38366;53.176;6.540;2022-08-19T12:57:53;8.55;;;6.57;;
52450;SDS011;38366;53.176;6.540;2022-08-19T13:00:19;7.18;;;6.35;;
52450;SDS011;38366;53.176;6.540;2022-08-19T13:02:47;6.55;;;5.80;;
52450;SDS011;38366;53.176;6.540;2022-08-19T13:05:16;9.68;;;6.60;;
52450;SDS011;38366;53.176;6.540;2022-08-19T13:07:47;11.18;;;7.50;;
52450;SDS011;38366;53.176;6.540;2022-08-19T13:10:14;9.50;;;6.47;;
52450;SDS011;38366;53.176;6.540;2022-08-19T13:12:43;10.50;;;6.28;;
52450;SDS011;38366;53.176;6.540;2022-08-19T13:15:10;8.38;;;6.15;;
52450;SDS011;38366;53.176;6.540;2022-08-19T13:17:37;9.02;;;6.85;;
52450;SDS011;38366;53.176;6.540;2022-08-19T13:20:04;9.75;;;7.97;;
52450;SDS011;38366;53.176;6.540;2022-08-19T13:22:32;11.00;;;8.10;;
52450;SDS011;38366;53.176;6.540;2022-08-19T13:24:58;12.60;;;9.18;;
52450;SDS011;38366;53.176;6.540;2022-08-19T13:27:24;13.88;;;10.68;;
52450;SDS011;38366;53.176;6.540;2022-08-19T13:29:49;11.88;;;10.00;;
52450;SDS011;38366;53.176;6.540;2022-08-19T13:32:33;13.70;;;10.40;;
52450;SDS011;38366;53.176;6.540;2022-08-19T13:35:17;10.70;;;9.10;;
52450;SDS011;38366;53.176;6.540;2022-08-19T13:37:43;9.68;;;7.50;;
52450;SDS011;38366;53.176;6.540;2022-08-19T13:40:15;11.75;;;7.38;;
52450;SDS011;38366;53.176;6.540;2022-08-19T13:42:48;7.68;;;6.05;;
52450;SDS011;38366;53.176;6.540;2022-08-19T13:45:16;5.88;;;5.00;;
52450;SDS011;38366;53.176;6.540;2022-08-19T13:47:48;8.18;;;4.90;;
52450;SDS011;38366;53.176;6.540;2022-08-19T13:50:16;7.63;;;5.20;;
52450;SDS011;38366;53.176;6.540;2022-08-19T13:52:43;6.25;;;4.78;;
52450;SDS011;38366;53.176;6.540;2022-08-19T13:55:11;6.78;;;4.97;;
52450;SDS011;38366;53.176;6.540;2022-08-19T13:57:37;6.53;;;5.07;;
52450;SDS011;38366;53.176;6.540;2022-08-19T14:00:13;6.82;;;5.63;;
52450;SDS011;38366;53.176;6.540;2022-08-19T14:02:42;8.02;;;5.80;;
52450;SDS011;38366;53.176;6.540;2022-08-19T14:05:10;7.32;;;5.85;;
52450;SDS011;38366;53.176;6.540;2022-08-19T14:07:38;7.32;;;5.40;;
52450;SDS011;38366;53.176;6.540;2022-08-19T14:10:05;8.98;;;6.00;;
52450;SDS011;38366;53.176;6.540;2022-08-19T14:12:32;7.47;;;6.00;;
52450;SDS011;38366;53.176;6.540;2022-08-19T14:14:58;10.32;;;6.53;;
52450;SDS011;38366;53.176;6.540;2022-08-19T14:17:24;9.88;;;7.38;;
52450;SDS011;38366;53.176;6.540;2022-08-19T14:19:56;9.43;;;6.95;;
52450;SDS011;38366;53.176;6.540;2022-08-19T14:22:35;8.48;;;7.53;;
52450;SDS011;38366;53.176;6.540;2022-08-19T14:25:02;10.20;;;7.82;;
52450;SDS011;38366;53.176;6.540;2022-08-19T14:27:30;10.40;;;7.70;;
52450;SDS011;38366;53.176;6.540;2022-08-19T14:29:57;11.57;;;7.90;;
52450;SDS011;38366;53.176;6.540;2022-08-19T14:32:24;10.35;;;7.40;;
52450;SDS011;38366;53.176;6.540;2022-08-19T14:34:52;13.63;;;9.25;;
52450;SDS011;38366;53.176;6.540;2022-08-19T14:37:19;12.10;;;8.80;;
52450;SDS011;38366;53.176;6.540;2022-08-19T14:39:46;13.40;;;8.88;;
52450;SDS011;38366;53.176;6.540;2022-08-19T14:42:12;12.88;;;9.02;;
52450;SDS011;38366;53.176;6.540;2022-08-19T14:44:39;11.93;;;9.23;;
52450;SDS011;38366;53.176;6.540;2022-08-19T14:47:05;13.05;;;9.35;;
52450;SDS011;38366;53.176;6.540;2022-08-19T14:49:32;13.45;;;9.32;;
52450;SDS011;38366;53.176;6.540;2022-08-19T14:51:58;12.68;;;10.15;;
52450;SDS011;38366;53.176;6.540;2022-08-19T14:54:24;14.23;;;9.80;;
52450;SDS011;38366;53.176;6.540;2022-08-19T14:56:50;12.05;;;9.00;;
52450;SDS011;38366;53.176;6.540;2022-08-19T14:59:15;15.05;;;8.27;;
52450;SDS011;38366;53.176;6.540;2022-08-19T15:01:41;11.70;;;6.88;;
52450;SDS011;38366;53.176;6.540;2022-08-19T15:04:08;10.25;;;7.40;;
52450;SDS011;38366;53.176;6.540;2022-08-19T15:06:33;10.95;;;7.72;;
52450;SDS011;38366;53.176;6.540;2022-08-19T15:08:59;8.95;;;6.63;;
52450;SDS011;38366;53.176;6.540;2022-08-19T15:11:26;9.63;;;6.40;;
52450;SDS011;38366;53.176;6.540;2022-08-19T15:13:53;10.95;;;8.25;;
52450;SDS011;38366;53.176;6.540;2022-08-19T15:16:20;12.98;;;8.32;;
52450;SDS011;38366;53.176;6.540;2022-08-19T15:18:49;12.00;;;9.10;;
52450;SDS011;38366;53.176;6.540;2022-08-19T15:21:16;3.90;;;3.33;;